createdAt,value
2023-03-30T00:00:18.325Z,2.75
2023-03-30T00:02:50.844Z,2.60
2023-03-30T00:05:18.651Z,3.17
2023-03-30T00:07:45.764Z,2.50
2023-03-30T00:10:14.686Z,2.22
2023-03-30T00:12:43.531Z,2.83
2023-03-30T00:15:12.375Z,2.70
2023-03-30T00:17:39.589Z,2.42
2023-03-30T00:20:12.073Z,2.53
2023-03-30T00:22:40.184Z,2.50
2023-03-30T00:25:12.365Z,2.55
2023-03-30T00:27:40.580Z,2.10
2023-03-30T00:30:10.347Z,2.10
2023-03-30T00:32:37.028Z,2.28
2023-03-30T00:35:05.279Z,2.38
2023-03-30T00:37:32.405Z,2.10
2023-03-30T00:39:58.946Z,2.05
2023-03-30T00:42:25.564Z,2.28
2023-03-30T00:45:23.082Z,2.35
2023-03-30T00:48:12.587Z,2.40
2023-03-30T00:50:52.752Z,2.72
2023-03-30T00:53:25.392Z,2.22
2023-03-30T00:55:53.974Z,2.30
2023-03-30T00:58:22.385Z,2.00
2023-03-30T01:00:48.956Z,2.55
2023-03-30T01:03:35.129Z,2.60
2023-03-30T01:06:05.399Z,2.15
2023-03-30T01:08:32.638Z,2.30
2023-03-30T01:11:03.939Z,2.08
2023-03-30T01:13:34.952Z,1.80
2023-03-30T01:16:15.340Z,2.20
2023-03-30T01:18:54.687Z,1.90
2023-03-30T01:21:46.213Z,2.15
2023-03-30T01:24:18.373Z,1.90
2023-03-30T01:26:56.423Z,2.25
2023-03-30T01:30:02.048Z,2.22
2023-03-30T01:32:49.955Z,2.08
2023-03-30T01:35:37.129Z,1.90
2023-03-30T01:38:09.580Z,2.25
2023-03-30T01:40:40.295Z,2.40
2023-03-30T01:43:19.383Z,2.35
2023-03-30T01:46:04.891Z,1.95
2023-03-30T01:48:45.774Z,2.17
2023-03-30T01:51:27.050Z,2.17
2023-03-30T01:54:00.766Z,1.90
2023-03-30T01:59:24.563Z,1.77
2023-03-30T02:01:54.216Z,2.13
2023-03-30T02:04:23.739Z,2.50
2023-03-30T02:06:59.589Z,1.95
2023-03-30T02:09:27.858Z,2.20
2023-03-30T02:11:55.470Z,2.67
2023-03-30T02:14:28.876Z,1.83
2023-03-30T02:17:28.673Z,2.00
2023-03-30T02:19:58.022Z,1.85
2023-03-30T02:22:26.774Z,1.80
2023-03-30T02:24:55.991Z,2.38
2023-03-30T02:27:23.335Z,2.10
2023-03-30T02:29:50.049Z,1.73
2023-03-30T02:32:22.880Z,2.00
2023-03-30T02:34:58.423Z,2.43
2023-03-30T02:37:40.759Z,1.80
2023-03-30T02:40:43.419Z,2.00
2023-03-30T02:43:37.823Z,1.60
2023-03-30T02:46:04.264Z,2.15
2023-03-30T02:48:43.508Z,1.83
2023-03-30T02:51:43.719Z,1.42
2023-03-30T02:54:17.860Z,1.90
2023-03-30T02:56:58.899Z,2.03
2023-03-30T02:59:35.978Z,1.77
2023-03-30T03:02:14.134Z,1.98
2023-03-30T03:04:43.577Z,2.00
2023-03-30T03:07:14.321Z,1.63
2023-03-30T03:09:41.189Z,2.00
2023-03-30T03:12:07.919Z,1.85
2023-03-30T03:14:34.415Z,1.63
2023-03-30T03:17:00.994Z,1.40
2023-03-30T03:19:27.549Z,1.38
2023-03-30T03:21:54.115Z,1.75
2023-03-30T03:24:20.751Z,1.75
2023-03-30T03:26:47.610Z,1.70
2023-03-30T03:29:14.445Z,1.90
2023-03-30T03:31:41.476Z,1.90
2023-03-30T03:34:08.063Z,1.92
2023-03-30T03:36:34.715Z,1.80
2023-03-30T03:39:01.269Z,1.80
2023-03-30T03:41:27.868Z,1.75
2023-03-30T03:43:54.365Z,1.48
2023-03-30T03:46:20.979Z,1.98
2023-03-30T03:48:47.558Z,1.60
2023-03-30T03:51:14.448Z,1.95
2023-03-30T03:53:41.004Z,1.70
2023-03-30T03:56:08.144Z,1.77
2023-03-30T03:58:35.315Z,1.50
2023-03-30T04:01:03.266Z,1.30
2023-03-30T04:03:30.576Z,1.42
2023-03-30T04:06:01.272Z,1.55
2023-03-30T04:08:28.851Z,1.75
2023-03-30T04:10:55.656Z,1.35
2023-03-30T04:13:22.195Z,1.50
2023-03-30T04:15:48.790Z,1.60
2023-03-30T04:18:15.512Z,1.42
2023-03-30T04:20:42.095Z,1.33
2023-03-30T04:23:09.784Z,1.75
2023-03-30T04:25:36.392Z,1.60
2023-03-30T04:28:04.990Z,1.48
2023-03-30T04:30:31.653Z,1.73
2023-03-30T04:33:04.727Z,1.90
2023-03-30T04:35:34.546Z,1.90
2023-03-30T04:38:02.164Z,2.25
2023-03-30T04:40:29.015Z,2.55
2023-03-30T04:43:02.108Z,2.03
2023-03-30T04:45:30.286Z,2.33
2023-03-30T04:47:56.903Z,2.03
2023-03-30T04:50:23.615Z,2.30
2023-03-30T04:52:50.362Z,1.98
2023-03-30T04:55:17.109Z,2.40
2023-03-30T04:57:43.607Z,2.92
2023-03-30T05:00:10.648Z,2.42
2023-03-30T05:02:37.264Z,2.95
2023-03-30T05:05:04.353Z,2.28
2023-03-30T05:07:30.989Z,2.60
2023-03-30T05:09:57.523Z,2.65
2023-03-30T05:12:24.164Z,2.53
2023-03-30T05:14:50.738Z,2.80
2023-03-30T05:17:17.353Z,2.97
2023-03-30T05:19:43.956Z,2.70
2023-03-30T05:22:10.592Z,2.35
2023-03-30T05:24:37.091Z,3.00
2023-03-30T05:27:05.013Z,3.00
2023-03-30T05:29:31.912Z,3.10
2023-03-30T05:31:58.514Z,3.00
2023-03-30T05:34:25.070Z,3.13
2023-03-30T05:36:51.566Z,2.83
2023-03-30T05:39:18.120Z,3.22
2023-03-30T05:41:44.612Z,3.60
2023-03-30T05:44:11.248Z,2.45
2023-03-30T05:46:37.805Z,2.78
2023-03-30T05:49:04.411Z,2.90
2023-03-30T05:51:31.117Z,3.30
2023-03-30T05:53:58.271Z,3.00
2023-03-30T05:56:25.197Z,3.72
2023-03-30T05:58:51.848Z,3.28
2023-03-30T06:01:20.826Z,2.80
2023-03-30T06:03:48.010Z,3.67
2023-03-30T06:06:14.697Z,3.03
2023-03-30T06:08:43.077Z,3.22
2023-03-30T06:11:09.606Z,3.38
2023-03-30T06:13:36.279Z,3.40
2023-03-30T06:16:03.802Z,3.13
2023-03-30T06:18:30.765Z,3.58
2023-03-30T06:20:57.459Z,3.20
2023-03-30T06:23:24.040Z,3.28
2023-03-30T06:25:53.173Z,3.22
2023-03-30T06:28:20.817Z,3.80
2023-03-30T06:30:49.333Z,3.25
2023-03-30T06:33:17.641Z,2.83
2023-03-30T06:35:52.577Z,3.30
2023-03-30T06:38:20.633Z,3.67
2023-03-30T06:40:47.836Z,3.20
2023-03-30T06:43:22.956Z,3.75
2023-03-30T06:45:51.257Z,3.58
2023-03-30T06:48:19.757Z,3.03
2023-03-30T06:50:49.348Z,3.47
2023-03-30T06:53:16.110Z,2.95
2023-03-30T06:55:43.377Z,3.22
2023-03-30T06:58:10.518Z,4.40
2023-03-30T07:00:37.339Z,3.38
2023-03-30T07:03:04.219Z,3.50
2023-03-30T07:05:31.222Z,4.03
2023-03-30T07:07:58.297Z,3.80
2023-03-30T07:10:24.852Z,3.42
2023-03-30T07:12:51.510Z,2.92
2023-03-30T07:15:18.274Z,3.60
2023-03-30T07:17:45.086Z,3.55
2023-03-30T07:20:15.589Z,3.90
2023-03-30T07:22:42.572Z,3.88
2023-03-30T07:25:10.078Z,4.05
2023-03-30T07:27:38.072Z,4.10
2023-03-30T07:30:20.512Z,5.00
2023-03-30T07:32:50.478Z,3.88
2023-03-30T07:35:17.368Z,4.25
2023-03-30T07:37:43.925Z,4.18
2023-03-30T07:40:11.808Z,4.43
2023-03-30T07:42:38.507Z,4.07
2023-03-30T07:45:05.688Z,3.67
2023-03-30T07:47:32.294Z,4.82
2023-03-30T07:49:58.939Z,3.78
2023-03-30T07:52:25.900Z,4.07
2023-03-30T07:54:54.593Z,4.47
2023-03-30T07:57:22.624Z,4.07
2023-03-30T07:59:49.369Z,4.35
2023-03-30T08:02:16.055Z,4.70
2023-03-30T08:04:43.977Z,4.68
2023-03-30T08:07:11.660Z,5.03
2023-03-30T08:09:38.456Z,5.35
2023-03-30T08:12:06.059Z,5.05
2023-03-30T08:14:32.686Z,4.75
2023-03-30T08:16:59.273Z,5.07
2023-03-30T08:19:27.105Z,4.65
2023-03-30T08:21:53.659Z,5.05
2023-03-30T08:24:20.413Z,5.13
2023-03-30T08:26:47.161Z,4.68
2023-03-30T08:29:13.656Z,4.40
2023-03-30T08:31:40.280Z,4.78
2023-03-30T08:34:08.000Z,5.13
2023-03-30T08:36:34.875Z,4.47
2023-03-30T08:39:01.432Z,4.50
2023-03-30T08:41:27.965Z,3.97
2023-03-30T08:44:06.738Z,4.80
2023-03-30T08:46:33.952Z,4.13
2023-03-30T08:49:07.852Z,4.20
2023-03-30T08:51:35.941Z,4.88
2023-03-30T08:54:07.069Z,4.90
2023-03-30T08:56:44.235Z,3.83
2023-03-30T08:59:29.140Z,4.32
2023-03-30T09:02:02.310Z,4.10
2023-03-30T09:04:38.116Z,4.07
2023-03-30T09:07:14.386Z,3.92
2023-03-30T09:09:45.533Z,3.58
2023-03-30T09:12:47.670Z,4.10
2023-03-30T09:15:25.914Z,3.17
2023-03-30T09:18:12.634Z,3.95
2023-03-30T09:20:43.646Z,4.22
2023-03-30T09:23:17.726Z,3.80
2023-03-30T09:25:54.309Z,3.97
2023-03-30T09:28:59.423Z,3.47
2023-03-30T09:31:34.900Z,3.50
2023-03-30T09:34:27.457Z,3.55
2023-03-30T09:36:57.295Z,3.92
2023-03-30T09:39:31.023Z,2.95
2023-03-30T09:42:19.582Z,3.78
2023-03-30T09:45:00.000Z,3.63
2023-03-30T09:47:28.369Z,3.63
2023-03-30T09:49:59.766Z,3.55
2023-03-30T09:52:29.495Z,3.50
2023-03-30T09:54:57.267Z,3.00
2023-03-30T09:57:33.008Z,3.75
2023-03-30T10:00:01.302Z,3.30
2023-03-30T10:02:31.380Z,3.58
2023-03-30T10:05:03.678Z,2.60
2023-03-30T10:07:40.599Z,3.70
2023-03-30T10:10:32.604Z,3.88
2023-03-30T10:13:14.375Z,3.20
2023-03-30T10:15:47.108Z,4.38
2023-03-30T10:18:27.808Z,3.13
2023-03-30T10:21:05.032Z,4.07
2023-03-30T10:23:34.407Z,3.03
2023-03-30T10:26:04.126Z,3.00
2023-03-30T10:28:33.959Z,3.55
2023-03-30T10:31:05.426Z,3.10
2023-03-30T10:33:39.477Z,3.10
2023-03-30T10:36:07.648Z,3.13
2023-03-30T10:38:34.998Z,3.67
2023-03-30T10:41:08.448Z,2.95
2023-03-30T10:43:36.780Z,2.90
2023-03-30T10:46:19.382Z,2.67
2023-03-30T10:49:02.757Z,3.65
2023-03-30T10:51:47.884Z,2.70
2023-03-30T10:54:32.754Z,3.00
2023-03-30T10:57:18.783Z,2.65
2023-03-30T11:00:00.194Z,2.95
2023-03-30T11:02:39.105Z,3.53
2023-03-30T11:05:16.880Z,3.45
2023-03-30T11:07:56.773Z,2.95
2023-03-30T11:10:32.932Z,3.08
2023-03-30T11:13:04.554Z,3.08
2023-03-30T11:15:42.950Z,2.85
2023-03-30T11:18:12.462Z,2.70
2023-03-30T11:20:55.518Z,3.10
2023-03-30T11:23:33.419Z,3.25
2023-03-30T11:26:08.666Z,2.97
2023-03-30T11:29:07.020Z,3.30
2023-03-30T11:31:53.865Z,3.60
2023-03-30T11:34:34.696Z,3.10
2023-03-30T11:37:12.656Z,2.80
2023-03-30T11:39:45.444Z,3.65
2023-03-30T11:42:27.099Z,3.20
2023-03-30T11:44:53.842Z,2.95
2023-03-30T11:47:32.286Z,3.15
2023-03-30T11:50:13.735Z,3.35
2023-03-30T11:53:02.234Z,2.92
2023-03-30T11:55:46.444Z,2.47
2023-03-30T11:58:35.640Z,2.80
2023-03-30T12:01:10.674Z,4.10
2023-03-30T12:03:44.198Z,3.00
2023-03-30T12:09:06.174Z,2.53
2023-03-30T12:11:52.422Z,2.88
2023-03-30T12:14:21.716Z,2.83
2023-03-30T12:16:52.457Z,2.85
2023-03-30T12:19:26.458Z,2.70
2023-03-30T12:22:00.137Z,2.90
2023-03-30T12:27:16.259Z,2.83
2023-03-30T12:30:02.491Z,3.00
2023-03-30T12:32:30.894Z,3.17
2023-03-30T12:34:58.442Z,3.15
2023-03-30T12:37:37.584Z,3.10
2023-03-30T12:40:08.763Z,2.92
2023-03-30T12:42:46.353Z,2.88
2023-03-30T12:45:16.507Z,3.38
2023-03-30T12:48:14.561Z,2.53
2023-03-30T12:51:18.404Z,2.95
2023-03-30T12:54:10.945Z,3.42
2023-03-30T12:56:49.525Z,3.15
2023-03-30T12:59:51.055Z,3.03
2023-03-30T13:02:47.264Z,2.72
2023-03-30T13:05:24.505Z,2.63
2023-03-30T13:07:54.825Z,2.65
2023-03-30T13:10:30.096Z,3.22
2023-03-30T13:12:58.472Z,2.47
2023-03-30T13:15:46.940Z,2.13
2023-03-30T13:18:13.535Z,2.90
2023-03-30T13:20:46.138Z,3.20
2023-03-30T13:23:12.643Z,2.90
2023-03-30T13:25:45.230Z,2.90
2023-03-30T13:28:49.387Z,3.65
2023-03-30T13:31:34.594Z,3.15
2023-03-30T13:34:20.007Z,2.70
2023-03-30T13:37:17.295Z,2.67
2023-03-30T13:40:24.335Z,3.08
2023-03-30T13:43:18.061Z,3.20
2023-03-30T13:46:16.360Z,2.53
2023-03-30T13:49:23.336Z,2.83
2023-03-30T13:51:49.959Z,2.85
2023-03-30T13:54:28.246Z,2.80
2023-03-30T13:57:04.224Z,2.47
2023-03-30T13:59:35.019Z,2.50
2023-03-30T14:02:02.265Z,2.80
2023-03-30T14:04:34.423Z,2.75
2023-03-30T14:07:13.933Z,3.38
2023-03-30T14:09:40.587Z,3.20
2023-03-30T14:12:07.723Z,3.38
2023-03-30T14:14:38.520Z,2.47
2023-03-30T14:17:22.020Z,3.13
2023-03-30T14:20:09.378Z,2.75
2023-03-30T14:22:41.027Z,2.88
2023-03-30T14:25:39.176Z,2.67
2023-03-30T14:28:20.025Z,2.80
2023-03-30T14:30:51.845Z,2.55
2023-03-30T14:33:18.839Z,2.80
2023-03-30T14:35:58.389Z,3.25
2023-03-30T14:38:30.058Z,2.78
2023-03-30T14:40:56.868Z,3.10
2023-03-30T14:43:27.235Z,2.53
2023-03-30T14:45:56.653Z,2.65
2023-03-30T14:48:28.702Z,2.38
2023-03-30T14:50:55.593Z,3.13
2023-03-30T14:53:27.633Z,2.65
2023-03-30T14:55:57.324Z,2.70
2023-03-30T14:58:30.083Z,2.60
2023-03-30T15:00:59.454Z,3.10
2023-03-30T15:03:34.337Z,2.40
2023-03-30T15:06:03.100Z,2.90
2023-03-30T15:08:36.789Z,3.22
2023-03-30T15:13:53.727Z,3.60
2023-03-30T15:16:29.886Z,2.90
2023-03-30T15:19:04.314Z,2.95
2023-03-30T15:21:34.108Z,2.67
2023-03-30T15:24:01.391Z,2.97
2023-03-30T15:26:28.642Z,2.67
2023-03-30T15:28:59.083Z,3.22
2023-03-30T15:31:28.993Z,3.92
2023-03-30T15:33:57.936Z,4.43
2023-03-30T15:36:33.594Z,3.90
2023-03-30T15:39:00.301Z,4.10
2023-03-30T15:41:47.652Z,4.75
2023-03-30T15:44:21.621Z,4.75
2023-03-30T15:46:55.100Z,4.45
2023-03-30T15:49:25.674Z,4.72
2023-03-30T15:51:55.479Z,4.55
2023-03-30T15:54:40.250Z,5.97
2023-03-30T15:57:18.496Z,7.50
2023-03-30T15:59:57.122Z,7.68
2023-03-30T16:02:37.824Z,7.47
2023-03-30T16:05:08.672Z,7.18
2023-03-30T16:07:36.241Z,7.25
2023-03-30T16:10:02.997Z,6.82
2023-03-30T16:12:31.378Z,7.45
2023-03-30T16:14:58.332Z,6.75
2023-03-30T16:17:25.659Z,7.13
2023-03-30T16:19:52.313Z,6.30
2023-03-30T16:22:18.851Z,6.78
2023-03-30T16:24:46.190Z,6.60
2023-03-30T16:27:13.128Z,7.72
2023-03-30T16:29:39.711Z,6.30
2023-03-30T16:32:06.438Z,6.32
2023-03-30T16:34:33.020Z,7.40
2023-03-30T16:36:59.631Z,6.43
2023-03-30T16:39:28.839Z,6.30
2023-03-30T16:41:56.004Z,6.65
2023-03-30T16:44:24.202Z,6.03
2023-03-30T16:46:51.558Z,6.43
2023-03-30T16:49:24.387Z,6.25
2023-03-30T16:51:54.469Z,7.00
2023-03-30T16:54:31.091Z,5.95
2023-03-30T16:57:00.001Z,7.35
2023-03-30T16:59:30.119Z,7.32
2023-03-30T17:01:57.139Z,6.95
2023-03-30T17:04:23.695Z,7.00
2023-03-30T17:06:50.505Z,6.97
2023-03-30T17:09:19.370Z,7.95
2023-03-30T17:11:47.758Z,7.28
2023-03-30T17:14:15.373Z,7.55
2023-03-30T17:16:43.440Z,7.03
2023-03-30T17:19:12.726Z,7.53
2023-03-30T17:21:40.405Z,7.50
2023-03-30T17:24:07.246Z,7.28
2023-03-30T17:26:33.800Z,6.38
2023-03-30T17:29:00.615Z,8.20
2023-03-30T17:31:27.312Z,6.80
2023-03-30T17:33:54.578Z,6.85
2023-03-30T17:36:23.448Z,6.88
2023-03-30T17:38:51.287Z,6.93
2023-03-30T17:41:19.649Z,6.50
2023-03-30T17:43:47.881Z,6.60
2023-03-30T17:46:17.091Z,5.95
2023-03-30T17:48:43.705Z,6.50
2023-03-30T17:51:10.371Z,6.55
2023-03-30T17:53:37.529Z,7.00
2023-03-30T17:56:04.254Z,7.45
2023-03-30T17:58:36.038Z,7.68
2023-03-30T18:01:06.228Z,7.57
2023-03-30T18:03:33.502Z,7.80
2023-03-30T18:06:02.038Z,8.10
2023-03-30T18:08:29.465Z,6.63
2023-03-30T18:11:00.892Z,6.88
2023-03-30T18:13:29.648Z,9.23
2023-03-30T18:15:58.397Z,8.82
2023-03-30T18:18:27.406Z,8.07
2023-03-30T18:20:56.321Z,7.72
2023-03-30T18:23:23.563Z,9.25
2023-03-30T18:25:50.639Z,10.15
2023-03-30T18:28:19.858Z,8.95
2023-03-30T18:30:47.039Z,8.20
2023-03-30T18:33:16.633Z,8.20
2023-03-30T18:35:45.374Z,7.88
2023-03-30T18:38:13.418Z,9.02
2023-03-30T18:40:43.983Z,7.75
2023-03-30T18:43:11.060Z,8.30
2023-03-30T18:45:40.292Z,7.97
2023-03-30T18:48:08.853Z,8.80
2023-03-30T18:50:39.335Z,8.10
2023-03-30T18:53:08.734Z,8.07
2023-03-30T18:55:37.670Z,7.50
2023-03-30T18:58:14.639Z,8.00
2023-03-30T19:00:41.341Z,8.38
2023-03-30T19:03:08.180Z,8.50
2023-03-30T19:05:35.649Z,8.15
2023-03-30T19:08:02.222Z,7.70
2023-03-30T19:10:31.625Z,8.43
2023-03-30T19:12:59.046Z,8.73
2023-03-30T19:15:31.765Z,8.40
2023-03-30T19:17:58.452Z,8.63
2023-03-30T19:20:27.132Z,9.65
2023-03-30T19:22:53.802Z,9.07
2023-03-30T19:25:22.488Z,9.30
2023-03-30T19:28:02.053Z,9.48
2023-03-30T19:30:36.123Z,9.55
2023-03-30T19:33:09.643Z,10.10
2023-03-30T19:35:36.453Z,10.55
2023-03-30T19:38:03.702Z,10.80
2023-03-30T19:40:30.273Z,10.10
2023-03-30T19:42:56.891Z,9.85
2023-03-30T19:45:23.836Z,11.40
2023-03-30T19:47:51.490Z,11.18
2023-03-30T19:50:20.579Z,10.75
2023-03-30T19:52:49.991Z,12.50
2023-03-30T19:55:18.097Z,11.63
2023-03-30T19:57:44.652Z,10.02
2023-03-30T20:00:15.387Z,10.93
2023-03-30T20:02:45.752Z,11.15
2023-03-30T20:05:13.274Z,11.45
2023-03-30T20:07:40.724Z,19.55
2023-03-30T20:10:10.722Z,13.98
2023-03-30T20:12:37.687Z,13.13
2023-03-30T20:15:06.335Z,12.55
2023-03-30T20:17:34.219Z,12.75
2023-03-30T20:20:06.740Z,11.88
2023-03-30T20:22:35.476Z,13.18
2023-03-30T20:25:02.885Z,11.13
2023-03-30T20:27:29.405Z,11.68
2023-03-30T20:29:55.993Z,11.88
2023-03-30T20:32:25.747Z,11.43
2023-03-30T20:34:52.701Z,11.18
2023-03-30T20:37:19.399Z,11.75
2023-03-30T20:39:45.942Z,10.43
2023-03-30T20:42:12.478Z,11.40
2023-03-30T20:44:41.147Z,10.23
2023-03-30T20:47:08.868Z,9.90
2023-03-30T20:49:37.631Z,10.45
2023-03-30T20:52:04.582Z,10.75
2023-03-30T20:54:31.490Z,10.13
2023-03-30T20:56:58.148Z,10.38
2023-03-30T20:59:24.681Z,9.93
2023-03-30T21:01:52.059Z,9.20
2023-03-30T21:04:19.555Z,9.20
2023-03-30T21:06:46.827Z,9.85
2023-03-30T21:09:13.689Z,9.52
2023-03-30T21:11:40.444Z,9.48
2023-03-30T21:14:08.592Z,8.63
2023-03-30T21:16:36.776Z,9.57
2023-03-30T21:19:04.678Z,9.18
2023-03-30T21:21:33.763Z,9.02
2023-03-30T21:24:01.659Z,9.98
2023-03-30T21:26:29.292Z,7.85
2023-03-30T21:28:56.272Z,7.70
2023-03-30T21:31:23.307Z,8.45
2023-03-30T21:33:50.071Z,8.30
2023-03-30T21:36:16.793Z,8.57
2023-03-30T21:38:43.441Z,8.50
2023-03-30T21:41:21.095Z,8.52
2023-03-30T21:43:48.181Z,7.20
2023-03-30T21:46:17.478Z,7.63
2023-03-30T21:48:45.871Z,7.47
2023-03-30T21:51:35.336Z,6.82
2023-03-30T21:54:01.938Z,7.55
2023-03-30T21:56:30.310Z,7.72
2023-03-30T21:58:57.764Z,6.55
2023-03-30T22:01:24.534Z,7.25
2023-03-30T22:03:52.247Z,6.63
2023-03-30T22:06:19.526Z,7.00
2023-03-30T22:08:46.505Z,6.18
2023-03-30T22:11:20.273Z,7.28
2023-03-30T22:16:28.352Z,6.20
2023-03-30T22:18:55.660Z,6.05
2023-03-30T22:21:24.526Z,6.32
2023-03-30T22:23:52.597Z,5.38
2023-03-30T22:26:19.125Z,5.82
2023-03-30T22:28:45.680Z,4.70
2023-03-30T22:31:14.853Z,4.70
2023-03-30T22:33:41.712Z,5.93
2023-03-30T22:36:20.704Z,5.53
2023-03-30T22:38:48.878Z,5.05
2023-03-30T22:41:15.874Z,5.10
2023-03-30T22:43:42.532Z,5.70
2023-03-30T22:46:09.230Z,5.00
2023-03-30T22:48:36.452Z,6.13
2023-03-30T22:51:04.126Z,4.78
2023-03-30T22:53:31.797Z,4.95
2023-03-30T22:55:58.371Z,5.35
2023-03-30T22:58:24.940Z,4.63
2023-03-30T23:00:51.873Z,4.47
2023-03-30T23:03:22.625Z,5.03
2023-03-30T23:05:52.591Z,4.55
2023-03-30T23:08:19.382Z,4.30
2023-03-30T23:10:45.905Z,4.10
2023-03-30T23:13:13.800Z,3.40
2023-03-30T23:15:40.511Z,4.43
2023-03-30T23:18:07.192Z,3.85
2023-03-30T23:20:33.719Z,4.00
2023-03-30T23:23:00.215Z,4.22
2023-03-30T23:25:27.271Z,4.65
2023-03-30T23:27:53.816Z,3.83
2023-03-30T23:30:20.329Z,5.25
2023-03-30T23:32:46.916Z,3.90
2023-03-30T23:35:13.464Z,4.80
2023-03-30T23:37:40.216Z,3.95
2023-03-30T23:40:07.967Z,3.63
2023-03-30T23:42:34.562Z,4.00
2023-03-30T23:45:01.230Z,3.75
2023-03-30T23:47:27.873Z,4.03
2023-03-30T23:49:54.417Z,3.67
2023-03-30T23:52:21.099Z,3.83
2023-03-30T23:54:52.157Z,3.80
2023-03-30T23:57:19.992Z,3.67
2023-03-30T23:59:46.746Z,3.78
